Accra, Ghana
Current Conditions -  °F | °C
As of 8:00 AM on Thursday 18 Dec 2014 (Local Time) from DGAA Reporting Station
Haze Haze  
Wind Chill: 79°   Ceiling: Unl
Heat Index: 83°   Visibility: 3mi
Dew Point: 77°   Wind: 8mph
Humidity: 94%   Direction: 270°W
Pressure: 29.91"   Gusts: NA
Location:  5.56°N, 0.2°W
Report Text: DGAA 180800Z 27007KT 5000 BR NSC 26/25 Q1013 NOSIG
Loading
Personal Weather Stations






























Interactive Weather Map New forecast layout! Learn more

10-Day Weather Forecast

Advertisements
Track Severe Weather on mobile